Time;durP1;ratioP1;P1;durP2;ratioP2;P2;SDS_P1;SDS_P2;PMS_P1;PMS_P2;Temp;Humidity;BMP_temperature;BMP_pressure;BME280_temperature;BME280_humidity;BME280_pressure;Samples;Min_cycle;Max_cycle;Signal;HPM_P1;HPM_P2
2023/06/04 00:01:06;;;;;;;;;1.00;1.00;;;;;;;;5056457;28;45328;-84
2023/06/04 00:03:32;;;;;;;;;2.00;1.00;;;;;;;;5038016;28;45407;-84
2023/06/04 00:05:57;;;;;;;;;1.50;1.00;;;;;;;;5056633;28;46819;-84
2023/06/04 00:08:22;;;;;;;;;1.00;1.00;;;;;;;;5056344;28;45556;-84
2023/06/04 00:10:48;;;;;;;;;2.50;2.00;;;;;;;;5056664;28;45469;-84
2023/06/04 00:13:13;;;;;;;;;2.00;1.00;;;;;;;;5055061;28;45281;-84
2023/06/04 00:15:38;;;;;;;;;1.00;1.00;;;;;;;;5055821;28;45475;-85
2023/06/04 00:18:03;;;;;;;;;1.00;1.00;;;;;;;;5056432;28;45438;-84
2023/06/04 00:20:29;;;;;;;;;1.00;1.00;;;;;;;;5056238;28;45345;-85
2023/06/04 00:22:54;;;;;;;;;3.00;1.00;;;;;;;;5056411;28;45356;-84
2023/06/04 00:25:19;;;;;;;;;1.67;1.00;;;;;;;;5055580;28;45405;-84
2023/06/04 00:27:44;;;;;;;;;2.33;1.00;;;;;;;;5056170;28;45377;-84
2023/06/04 00:30:10;;;;;;;;;4.25;1.00;;;;;;;;5054662;28;45456;-84
2023/06/04 00:32:36;;;;;;;;;1.75;0.50;;;;;;;;5056325;28;45376;-84
2023/06/04 00:35:01;;;;;;;;;2.00;0.50;;;;;;;;5054481;28;47784;-83
2023/06/04 00:37:27;;;;;;;;;2.00;1.00;;;;;;;;5055551;28;45242;-84
2023/06/04 00:39:52;;;;;;;;;1.00;1.00;;;;;;;;5056327;28;45427;-85
2023/06/04 00:42:17;;;;;;;;;0.33;0.33;;;;;;;;5055988;28;45562;-84
2023/06/04 00:44:44;;;;;;;;;1.67;0.67;;;;;;;;5055539;28;46514;-85
2023/06/04 00:47:16;;;;;;;;;1.25;0.75;;;;;;;;5055907;28;45209;-84
2023/06/04 00:49:42;;;;;;;;;1.50;1.00;;;;;;;;5055616;28;45336;-84
2023/06/04 00:52:10;;;;;;;;;2.00;1.00;;;;;;;;5055966;28;45407;-85
2023/06/04 00:54:36;;;;;;;;;2.00;1.00;;;;;;;;5055588;28;46493;-84
2023/06/04 00:57:02;;;;;;;;;0.50;0.50;;;;;;;;5055937;28;45768;-85
2023/06/04 00:59:29;;;;;;;;;2.00;0.25;;;;;;;;5055658;28;45393;-84
2023/06/04 01:02:01;;;;;;;;;0.50;0.50;;;;;;;;5055728;28;45620;-84
2023/06/04 01:04:32;;;;;;;;;0.25;0.25;;;;;;;;5055838;28;46320;-84
2023/06/04 01:07:00;;;;;;;;;0.25;0.25;;;;;;;;5055700;28;45756;-84
2023/06/04 01:09:29;;;;;;;;;0.25;0.25;;;;;;;;5055904;28;45281;-85
2023/06/04 01:11:57;;;;;;;;;0.75;0.25;;;;;;;;5055426;28;45650;-83
2023/06/04 01:14:24;;;;;;;;;1.00;1.00;;;;;;;;5054560;28;46265;-84
2023/06/04 01:17:01;;;;;;;;;0.00;0.00;;;;;;;;5055691;28;45360;-84
2023/06/04 01:19:47;;;;;;;;;0.75;0.75;;;;;;;;5055488;28;45408;-84
2023/06/04 01:22:33;;;;;;;;;0.75;0.75;;;;;;;;5055353;28;45477;-84
2023/06/04 01:25:02;;;;;;;;;1.25;0.50;;;;;;;;5054477;28;45710;-84
2023/06/04 01:27:28;;;;;;;;;1.00;1.00;;;;;;;;5055171;28;45292;-84
2023/06/04 01:29:56;;;;;;;;;1.25;1.25;;;;;;;;5055611;28;45292;-84
2023/06/04 01:32:21;;;;;;;;;1.00;1.00;;;;;;;;5055254;28;45350;-84
2023/06/04 01:34:47;;;;;;;;;3.00;1.50;;;;;;;;5054607;28;46427;-83
2023/06/04 01:37:13;;;;;;;;;2.00;0.00;;;;;;;;5055495;28;45379;-83
2023/06/04 01:39:38;;;;;;;;;1.00;1.00;;;;;;;;5055359;28;45332;-84
2023/06/04 01:42:03;;;;;;;;;1.00;1.00;;;;;;;;5056513;28;45419;-84
2023/06/04 01:44:29;;;;;;;;;1.00;1.00;;;;;;;;5058435;28;46642;-84
2023/06/04 01:46:54;;;;;;;;;2.00;0.25;;;;;;;;5058762;28;45455;-84
2023/06/04 01:49:19;;;;;;;;;2.00;1.00;;;;;;;;5058948;28;45483;-84
2023/06/04 01:51:45;;;;;;;;;1.00;1.00;;;;;;;;5058519;28;45444;-85
2023/06/04 01:54:10;;;;;;;;;3.00;1.00;;;;;;;;5058908;28;45378;-84
2023/06/04 01:56:35;;;;;;;;;1.00;1.00;;;;;;;;5057872;28;45490;-84
2023/06/04 01:59:01;;;;;;;;;1.00;1.00;;;;;;;;5058866;28;45378;-84
2023/06/04 02:01:26;;;;;;;;;1.25;0.00;;;;;;;;5058082;28;45318;-86
2023/06/04 02:03:52;;;;;;;;;0.75;0.75;;;;;;;;5058228;28;46290;-84
2023/06/04 02:06:17;;;;;;;;;0.50;0.50;;;;;;;;5058402;28;45349;-83
2023/06/04 02:08:43;;;;;;;;;0.33;0.00;;;;;;;;5058582;28;45325;-85
2023/06/04 02:11:08;;;;;;;;;2.00;0.50;;;;;;;;5058055;28;45417;-84
2023/06/04 02:13:34;;;;;;;;;1.00;1.00;;;;;;;;5056226;28;47115;-84
2023/06/04 02:15:59;;;;;;;;;0.75;0.75;;;;;;;;5058276;28;45332;-84
2023/06/04 02:18:24;;;;;;;;;1.00;1.00;;;;;;;;5040279;28;45948;-83
2023/06/04 02:20:50;;;;;;;;;2.25;1.00;;;;;;;;5057239;28;45346;-84
2023/06/04 02:23:17;;;;;;;;;5.00;1.00;;;;;;;;5057416;28;46386;-84
2023/06/04 02:25:45;;;;;;;;;2.00;1.00;;;;;;;;5057914;28;45775;-85
2023/06/04 02:28:11;;;;;;;;;5.00;1.00;;;;;;;;5057823;28;45456;-84
2023/06/04 02:30:36;;;;;;;;;0.50;0.25;;;;;;;;5058300;28;45290;-84
2023/06/04 02:33:01;;;;;;;;;0.67;0.67;;;;;;;;5057679;28;46703;-84
2023/06/04 02:35:27;;;;;;;;;0.25;0.25;;;;;;;;5057732;28;45392;-82
2023/06/04 02:37:53;;;;;;;;;1.50;1.50;;;;;;;;5057662;28;45511;-84
2023/06/04 02:40:18;;;;;;;;;2.75;1.00;;;;;;;;5057784;28;45441;-84
2023/06/04 02:42:43;;;;;;;;;2.00;2.00;;;;;;;;5057620;28;46252;-84
2023/06/04 02:45:09;;;;;;;;;0.00;0.00;;;;;;;;5039925;28;45403;-85
2023/06/04 02:47:35;;;;;;;;;0.00;0.00;;;;;;;;5057891;28;45329;-84
2023/06/04 02:50:00;;;;;;;;;1.00;1.00;;;;;;;;5057740;28;45267;-85
2023/06/04 02:52:25;;;;;;;;;1.67;0.00;;;;;;;;5057291;28;46586;-84
2023/06/04 02:54:50;;;;;;;;;1.33;0.33;;;;;;;;5057018;28;45477;-84
2023/06/04 02:57:16;;;;;;;;;0.75;0.75;;;;;;;;5057568;28;45326;-84
2023/06/04 02:59:41;;;;;;;;;2.00;1.00;;;;;;;;5057951;28;45486;-84
2023/06/04 03:02:06;;;;;;;;;1.67;1.00;;;;;;;;5056981;28;45437;-84
2023/06/04 03:04:34;;;;;;;;;0.67;0.67;;;;;;;;5057356;28;45398;-84
2023/06/04 03:07:00;;;;;;;;;1.00;0.00;;;;;;;;5057579;28;45437;-83
2023/06/04 03:09:25;;;;;;;;;1.00;0.75;;;;;;;;5057003;28;45381;-84
2023/06/04 03:11:50;;;;;;;;;1.00;1.00;;;;;;;;5057487;28;45392;-84
2023/06/04 03:14:16;;;;;;;;;1.67;0.00;;;;;;;;5057381;28;45492;-84
2023/06/04 03:16:41;;;;;;;;;0.00;0.00;;;;;;;;5057599;28;45363;-84
2023/06/04 03:19:06;;;;;;;;;0.67;0.67;;;;;;;;5057131;28;45441;-84
2023/06/04 03:21:32;;;;;;;;;0.00;0.00;;;;;;;;5056933;28;47410;-84
2023/06/04 03:23:57;;;;;;;;;2.00;0.75;;;;;;;;5057120;28;45522;-84
2023/06/04 03:26:22;;;;;;;;;1.00;1.00;;;;;;;;5057380;28;45492;-84
2023/06/04 03:28:47;;;;;;;;;3.00;1.00;;;;;;;;5057293;28;45316;-84
2023/06/04 03:31:12;;;;;;;;;0.00;0.00;;;;;;;;5056942;28;46310;-84
2023/06/04 03:33:37;;;;;;;;;0.00;0.00;;;;;;;;5056818;28;45372;-84
2023/06/04 03:36:03;;;;;;;;;0.33;0.00;;;;;;;;5057044;28;45739;-84
2023/06/04 03:38:28;;;;;;;;;1.00;0.00;;;;;;;;5038404;28;45302;-84
2023/06/04 03:40:53;;;;;;;;;2.00;1.00;;;;;;;;5055734;28;47252;-83
2023/06/04 03:43:19;;;;;;;;;0.25;0.00;;;;;;;;5056969;28;45291;-83
2023/06/04 03:45:44;;;;;;;;;1.00;0.00;;;;;;;;5056675;28;45312;-83
2023/06/04 03:48:10;;;;;;;;;2.33;0.00;;;;;;;;5057174;28;45396;-84
2023/06/04 03:50:36;;;;;;;;;0.50;0.50;;;;;;;;5056665;28;46368;-85
2023/06/04 03:53:04;;;;;;;;;1.00;1.00;;;;;;;;5056508;28;45484;-84
2023/06/04 03:55:31;;;;;;;;;0.00;0.00;;;;;;;;5057042;28;45332;-84
2023/06/04 03:57:57;;;;;;;;;1.50;0.00;;;;;;;;5056786;28;45403;-84
2023/06/04 04:00:22;;;;;;;;;0.00;0.00;;;;;;;;5056704;28;46513;-84
2023/06/04 04:02:47;;;;;;;;;2.00;1.00;;;;;;;;5038524;28;45878;-84
2023/06/04 04:05:13;;;;;;;;;1.00;1.00;;;;;;;;5056615;28;45226;-84
2023/06/04 04:07:38;;;;;;;;;0.67;0.67;;;;;;;;5056143;28;45263;-83
2023/06/04 04:10:05;;;;;;;;;2.00;0.00;;;;;;;;5038223;28;46069;-85
2023/06/04 04:12:30;;;;;;;;;1.00;0.00;;;;;;;;5056229;28;45850;-84
2023/06/04 04:14:56;;;;;;;;;0.00;0.00;;;;;;;;5056838;28;45511;-84
2023/06/04 04:17:21;;;;;;;;;0.00;0.00;;;;;;;;5056452;28;45242;-84
2023/06/04 04:19:46;;;;;;;;;2.33;1.00;;;;;;;;5056387;28;45456;-84
2023/06/04 04:22:12;;;;;;;;;1.00;1.00;;;;;;;;5055698;28;45388;-84
2023/06/04 04:24:39;;;;;;;;;0.00;0.00;;;;;;;;5056282;28;45501;-84
2023/06/04 04:27:04;;;;;;;;;1.00;1.00;;;;;;;;5055655;28;45401;-84
2023/06/04 04:29:32;;;;;;;;;2.00;0.25;;;;;;;;5037460;28;48471;-85
2023/06/04 04:31:58;;;;;;;;;0.50;0.50;;;;;;;;5056058;28;45876;-84
2023/06/04 04:34:25;;;;;;;;;0.50;0.50;;;;;;;;5056531;28;45323;-84
2023/06/04 04:36:52;;;;;;;;;0.75;0.75;;;;;;;;5055039;28;45299;-83
2023/06/04 04:39:18;;;;;;;;;1.00;1.00;;;;;;;;5055965;28;45493;-84
2023/06/04 04:41:43;;;;;;;;;1.00;1.00;;;;;;;;5037930;28;45994;-84
2023/06/04 04:44:08;;;;;;;;;1.25;1.00;;;;;;;;5038381;28;45728;-84
2023/06/04 04:46:33;;;;;;;;;1.00;0.00;;;;;;;;5056130;28;45371;-84
2023/06/04 04:48:59;;;;;;;;;2.00;0.00;;;;;;;;5056205;28;46478;-84
2023/06/04 04:51:24;;;;;;;;;1.67;0.00;;;;;;;;5055435;28;45420;-83
2023/06/04 04:53:49;;;;;;;;;0.33;0.00;;;;;;;;5055949;28;45324;-83
2023/06/04 04:56:14;;;;;;;;;0.00;0.00;;;;;;;;5056123;28;45238;-84
2023/06/04 04:58:39;;;;;;;;;0.00;0.00;;;;;;;;5055716;28;45525;-84
2023/06/04 05:01:05;;;;;;;;;1.00;0.33;;;;;;;;5037912;28;45410;-84
2023/06/04 05:03:30;;;;;;;;;0.00;0.00;;;;;;;;5055999;28;45233;-84
2023/06/04 05:05:55;;;;;;;;;0.00;0.00;;;;;;;;5037429;28;45342;-84
2023/06/04 05:08:20;;;;;;;;;0.67;0.00;;;;;;;;5055978;28;45373;-83
2023/06/04 05:10:45;;;;;;;;;1.00;1.00;;;;;;;;5055635;28;45454;-83
2023/06/04 05:13:11;;;;;;;;;0.00;0.00;;;;;;;;5055461;28;45384;-84
2023/06/04 05:15:36;;;;;;;;;0.00;0.00;;;;;;;;5056304;28;45574;-85
2023/06/04 05:18:03;;;;;;;;;0.00;0.00;;;;;;;;5061908;28;46395;-83
2023/06/04 05:20:28;;;;;;;;;0.00;0.00;;;;;;;;5062584;28;45425;-92
2023/06/04 05:22:55;;;;;;;;;2.25;1.00;;;;;;;;5046012;28;45239;-92
2023/06/04 05:25:20;;;;;;;;;0.25;0.25;;;;;;;;5063164;28;45613;-92
2023/06/04 05:27:48;;;;;;;;;0.25;0.25;;;;;;;;5063785;28;47174;-92
2023/06/04 05:30:14;;;;;;;;;0.00;0.00;;;;;;;;5070183;27;45753;-90
2023/06/04 05:32:40;;;;;;;;;1.00;1.00;;;;;;;;5045950;28;45388;-92
2023/06/04 05:35:07;;;;;;;;;0.75;0.75;;;;;;;;5063009;28;45503;-92
2023/06/04 05:37:34;;;;;;;;;1.75;0.00;;;;;;;;5063780;28;46556;-89
2023/06/04 05:39:59;;;;;;;;;0.00;0.00;;;;;;;;5062509;28;45717;-88
2023/06/04 05:42:25;;;;;;;;;2.00;0.00;;;;;;;;5063215;28;45290;-93
2023/06/04 05:44:50;;;;;;;;;0.00;0.00;;;;;;;;5063113;28;45609;-91
2023/06/04 05:47:16;;;;;;;;;1.00;0.00;;;;;;;;5062966;28;46490;-92
2023/06/04 05:49:41;;;;;;;;;0.00;0.00;;;;;;;;5063297;28;45402;-91
2023/06/04 05:52:07;;;;;;;;;0.00;0.00;;;;;;;;5045356;28;45498;-92
2023/06/04 05:54:32;;;;;;;;;0.00;0.00;;;;;;;;5063645;28;45343;-91
2023/06/04 05:56:58;;;;;;;;;0.50;0.50;;;;;;;;5062227;28;46409;-90
2023/06/04 05:59:23;;;;;;;;;1.00;1.00;;;;;;;;5044113;28;45879;-90
2023/06/04 06:01:49;;;;;;;;;0.00;0.00;;;;;;;;5062947;28;45374;-90
2023/06/04 06:04:15;;;;;;;;;4.50;0.25;;;;;;;;5061739;28;45580;-91
2023/06/04 06:06:43;;;;;;;;;0.00;0.00;;;;;;;;5062495;28;46540;-93
2023/06/04 06:09:09;;;;;;;;;0.00;0.00;;;;;;;;5062046;28;45791;-87
2023/06/04 06:11:34;;;;;;;;;1.00;1.00;;;;;;;;5062601;28;45348;-89
2023/06/04 06:14:04;;;;;;;;;1.00;0.00;;;;;;;;5062074;28;45406;-90
2023/06/04 06:16:29;;;;;;;;;3.25;0.00;;;;;;;;5062522;28;47387;-92
2023/06/04 06:18:55;;;;;;;;;1.00;0.00;;;;;;;;5062018;28;45455;-91
2023/06/04 06:21:20;;;;;;;;;0.00;0.00;;;;;;;;5063127;28;45321;-93
2023/06/04 06:23:45;;;;;;;;;0.00;0.00;;;;;;;;5062825;28;45442;-85
2023/06/04 06:26:11;;;;;;;;;1.00;1.00;;;;;;;;5061931;28;45423;-88
2023/06/04 06:28:36;;;;;;;;;0.00;0.00;;;;;;;;5058937;28;45321;-84
2023/06/04 06:31:02;;;;;;;;;0.00;0.00;;;;;;;;5058914;28;45263;-87
2023/06/04 06:33:27;;;;;;;;;1.00;0.00;;;;;;;;5057875;28;45532;-86
2023/06/04 06:35:52;;;;;;;;;2.00;0.00;;;;;;;;5058461;28;46288;-87
2023/06/04 06:38:17;;;;;;;;;0.00;0.00;;;;;;;;5058425;28;45358;-87
2023/06/04 06:40:43;;;;;;;;;2.00;0.00;;;;;;;;5058375;28;45313;-88
2023/06/04 06:43:09;;;;;;;;;0.00;0.00;;;;;;;;5057632;28;45626;-91
2023/06/04 06:45:35;;;;;;;;;0.00;0.00;;;;;;;;5058452;28;47225;-88
2023/06/04 06:48:00;;;;;;;;;0.00;0.00;;;;;;;;5057399;28;45436;-88
2023/06/04 06:50:25;;;;;;;;;0.33;0.33;;;;;;;;5058898;28;45358;-91
2023/06/04 06:52:50;;;;;;;;;0.00;0.00;;;;;;;;5058827;28;45293;-96
2023/06/04 06:55:15;;;;;;;;;0.00;0.00;;;;;;;;5058085;28;48181;-89
2023/06/04 06:57:41;;;;;;;;;1.00;1.00;;;;;;;;5057985;28;45402;-91
2023/06/04 07:00:07;;;;;;;;;0.50;0.00;;;;;;;;5057921;28;45435;-88
2023/06/04 07:02:32;;;;;;;;;0.25;0.00;;;;;;;;5056784;28;45289;-86
2023/06/04 07:04:57;;;;;;;;;0.00;0.00;;;;;;;;5057617;28;45322;-85
2023/06/04 07:07:22;;;;;;;;;0.00;0.00;;;;;;;;5038701;28;45372;-85
2023/06/04 07:09:47;;;;;;;;;1.50;0.00;;;;;;;;5039425;28;45337;-84
2023/06/04 07:12:13;;;;;;;;;0.00;0.00;;;;;;;;5056824;28;45410;-85
2023/06/04 07:14:38;;;;;;;;;1.00;0.00;;;;;;;;5056549;28;47259;-83
2023/06/04 07:17:03;;;;;;;;;1.00;0.00;;;;;;;;5058156;28;45440;-85
2023/06/04 07:19:29;;;;;;;;;0.25;0.25;;;;;;;;5057806;28;45444;-84
2023/06/04 07:21:54;;;;;;;;;2.00;0.00;;;;;;;;5040313;28;45457;-85
2023/06/04 07:24:19;;;;;;;;;1.25;0.00;;;;;;;;5057456;28;46238;-83
2023/06/04 07:26:45;;;;;;;;;0.00;0.00;;;;;;;;5057359;28;45267;-81
2023/06/04 07:29:10;;;;;;;;;0.00;0.00;;;;;;;;5038860;28;45564;-84
2023/06/04 07:31:35;;;;;;;;;0.50;0.00;;;;;;;;5057142;28;45446;-81
2023/06/04 07:34:00;;;;;;;;;1.00;1.00;;;;;;;;5057304;28;46387;-82
2023/06/04 07:36:26;;;;;;;;;0.00;0.00;;;;;;;;5057018;28;45419;-82
2023/06/04 07:38:51;;;;;;;;;0.33;0.33;;;;;;;;5038770;28;45525;-82
2023/06/04 07:41:16;;;;;;;;;0.00;0.00;;;;;;;;5057355;28;45232;-82
2023/06/04 07:43:42;;;;;;;;;2.00;0.33;;;;;;;;5057094;28;46467;-82
2023/06/04 07:46:09;;;;;;;;;0.00;0.00;;;;;;;;5056689;28;45768;-82
2023/06/04 07:48:34;;;;;;;;;1.00;0.00;;;;;;;;5057136;28;45295;-82
2023/06/04 07:51:00;;;;;;;;;0.00;0.00;;;;;;;;5057140;28;45527;-82
2023/06/04 07:53:26;;;;;;;;;1.50;0.75;;;;;;;;5055695;28;45844;-82
2023/06/04 07:55:51;;;;;;;;;2.50;1.00;;;;;;;;5056831;28;45305;-81
2023/06/04 07:58:17;;;;;;;;;1.25;0.50;;;;;;;;5056962;28;45336;-84
2023/06/04 08:00:42;;;;;;;;;0.00;0.00;;;;;;;;5056563;28;45332;-84
2023/06/04 08:03:07;;;;;;;;;0.33;0.33;;;;;;;;5056897;28;45470;-84
2023/06/04 08:05:32;;;;;;;;;0.00;0.00;;;;;;;;5056662;28;45557;-84
2023/06/04 08:07:57;;;;;;;;;0.00;0.00;;;;;;;;5057003;28;45349;-84
2023/06/04 08:10:23;;;;;;;;;1.00;0.33;;;;;;;;5056825;28;45336;-84
2023/06/04 08:12:48;;;;;;;;;0.00;0.00;;;;;;;;5056399;28;46188;-84
2023/06/04 08:15:13;;;;;;;;;2.00;0.33;;;;;;;;5056335;28;45334;-84
2023/06/04 08:17:38;;;;;;;;;1.00;1.00;;;;;;;;5056791;28;45316;-84
2023/06/04 08:20:06;;;;;;;;;1.33;0.00;;;;;;;;5056712;28;45283;-84
2023/06/04 08:22:31;;;;;;;;;2.00;1.00;;;;;;;;5056107;28;45573;-84
2023/06/04 08:24:57;;;;;;;;;2.25;0.25;;;;;;;;5056359;28;45343;-84
2023/06/04 08:27:22;;;;;;;;;1.00;1.00;;;;;;;;5056132;28;45394;-84
2023/06/04 08:29:47;;;;;;;;;4.00;1.25;;;;;;;;5056382;28;45642;-84
2023/06/04 08:32:13;;;;;;;;;0.75;0.00;;;;;;;;5056403;28;45424;-84
2023/06/04 08:34:38;;;;;;;;;0.00;0.00;;;;;;;;5056409;28;45452;-83
2023/06/04 08:37:04;;;;;;;;;2.00;1.00;;;;;;;;5056194;28;45495;-84
2023/06/04 08:39:29;;;;;;;;;0.00;0.00;;;;;;;;5056481;28;45558;-84
2023/06/04 08:41:56;;;;;;;;;2.00;1.00;;;;;;;;5055792;28;46305;-83
2023/06/04 08:44:21;;;;;;;;;0.00;0.00;;;;;;;;5056191;28;45446;-84
2023/06/04 08:46:50;;;;;;;;;2.00;0.00;;;;;;;;5056438;28;45443;-84
2023/06/04 08:49:16;;;;;;;;;1.00;0.75;;;;;;;;5056354;28;45416;-84
2023/06/04 08:51:42;;;;;;;;;1.00;1.00;;;;;;;;5037074;28;46195;-84
2023/06/04 08:54:08;;;;;;;;;2.00;0.25;;;;;;;;5056065;28;45763;-84
2023/06/04 08:56:34;;;;;;;;;0.00;0.00;;;;;;;;5037810;28;45558;-88
2023/06/04 08:59:01;;;;;;;;;1.50;0.00;;;;;;;;5055925;28;45557;-85
2023/06/04 09:01:26;;;;;;;;;1.00;0.00;;;;;;;;5054598;28;46525;-85
2023/06/04 09:03:51;;;;;;;;;0.00;0.00;;;;;;;;5055173;28;45593;-84
2023/06/04 09:06:17;;;;;;;;;0.00;0.00;;;;;;;;5055935;28;45295;-84
2023/06/04 09:08:43;;;;;;;;;0.00;0.00;;;;;;;;5055614;28;45363;-84
2023/06/04 09:11:11;;;;;;;;;1.00;1.00;;;;;;;;5055275;28;46557;-85
2023/06/04 09:13:39;;;;;;;;;0.75;0.75;;;;;;;;5055678;28;45768;-84
2023/06/04 09:16:08;;;;;;;;;0.25;0.00;;;;;;;;5055626;28;45454;-84
2023/06/04 09:18:33;;;;;;;;;1.00;0.00;;;;;;;;5055613;28;45329;-85
2023/06/04 09:21:02;;;;;;;;;0.00;0.00;;;;;;;;5054149;28;45548;-85
2023/06/04 09:23:27;;;;;;;;;1.25;1.00;;;;;;;;5055724;28;45564;-84
2023/06/04 09:25:53;;;;;;;;;1.00;1.00;;;;;;;;5054923;28;45382;-85
2023/06/04 09:28:20;;;;;;;;;0.00;0.00;;;;;;;;5054476;28;45394;-85
2023/06/04 09:30:54;;;;;;;;;4.00;0.00;;;;;;;;5055573;28;46641;-84
2023/06/04 09:33:20;;;;;;;;;0.00;0.00;;;;;;;;5055575;28;45297;-85
2023/06/04 09:35:58;;;;;;;;;2.00;0.00;;;;;;;;5055502;28;45336;-86
2023/06/04 09:38:23;;;;;;;;;0.00;0.00;;;;;;;;5055740;28;45366;-87
2023/06/04 09:40:49;;;;;;;;;1.00;1.00;;;;;;;;5054641;28;46087;-87
2023/06/04 09:43:24;;;;;;;;;0.00;0.00;;;;;;;;5055473;28;45721;-84
2023/06/04 09:45:49;;;;;;;;;0.25;0.25;;;;;;;;5055463;28;45395;-85
2023/06/04 09:48:23;;;;;;;;;0.50;0.50;;;;;;;;5054859;28;45572;-86
2023/06/04 09:50:48;;;;;;;;;0.50;0.50;;;;;;;;5051796;28;46434;-86
2023/06/04 09:53:15;;;;;;;;;2.33;0.33;;;;;;;;5061627;28;45344;-83
2023/06/04 09:55:41;;;;;;;;;1.75;0.75;;;;;;;;5064740;28;45337;-83
2023/06/04 09:58:07;;;;;;;;;0.50;0.25;;;;;;;;5059014;28;45297;-83
2023/06/04 10:00:33;;;;;;;;;0.50;0.00;;;;;;;;5054919;28;46074;-84
2023/06/04 10:03:01;;;;;;;;;0.00;0.00;;;;;;;;5056768;28;45368;-84
2023/06/04 10:05:26;;;;;;;;;0.50;0.00;;;;;;;;5059021;28;45402;-81
2023/06/04 10:07:52;;;;;;;;;1.50;0.00;;;;;;;;5058378;28;45385;-81
2023/06/04 10:10:19;;;;;;;;;0.25;0.25;;;;;;;;5058332;28;47009;-82
2023/06/04 10:12:47;;;;;;;;;0.00;0.00;;;;;;;;5057837;28;45463;-82
2023/06/04 10:15:12;;;;;;;;;0.25;0.00;;;;;;;;5058666;28;45429;-86
2023/06/04 10:17:39;;;;;;;;;0.25;0.25;;;;;;;;5058578;28;45597;-83
2023/06/04 10:20:05;;;;;;;;;0.00;0.00;;;;;;;;5058066;28;46182;-83
2023/06/04 10:22:31;;;;;;;;;1.00;1.00;;;;;;;;5058469;28;45405;-83
2023/06/04 10:24:57;;;;;;;;;0.50;0.50;;;;;;;;5058026;28;45422;-84
2023/06/04 10:27:22;;;;;;;;;1.75;0.00;;;;;;;;5058095;28;45273;-83
2023/06/04 10:29:49;;;;;;;;;1.00;0.00;;;;;;;;5058488;28;46436;-85
2023/06/04 10:32:15;;;;;;;;;2.00;0.00;;;;;;;;5058048;28;45260;-84
2023/06/04 10:34:40;;;;;;;;;2.00;0.00;;;;;;;;5058347;28;45498;-85
2023/06/04 10:37:05;;;;;;;;;0.00;0.00;;;;;;;;5057899;28;45419;-85
2023/06/04 10:39:32;;;;;;;;;0.00;0.00;;;;;;;;5057750;28;47324;-84
2023/06/04 10:42:05;;;;;;;;;1.00;0.00;;;;;;;;5057739;28;45631;-85
2023/06/04 10:44:30;;;;;;;;;0.00;0.00;;;;;;;;5058314;28;45340;-85
2023/06/04 10:46:56;;;;;;;;;2.25;0.75;;;;;;;;5057430;28;45398;-84
2023/06/04 10:49:29;;;;;;;;;0.00;0.00;;;;;;;;5039705;28;47286;-82
2023/06/04 10:52:03;;;;;;;;;0.75;0.75;;;;;;;;5055031;28;45600;-84
2023/06/04 10:54:28;;;;;;;;;2.00;0.75;;;;;;;;5056718;28;45433;-83
2023/06/04 10:56:53;;;;;;;;;8.25;3.00;;;;;;;;5057305;28;45406;-82
2023/06/04 10:59:19;;;;;;;;;1.33;1.00;;;;;;;;5057665;28;47268;-83
2023/06/04 11:01:45;;;;;;;;;2.00;1.00;;;;;;;;5057099;28;45471;-83
2023/06/04 11:04:28;;;;;;;;;1.75;1.00;;;;;;;;5057073;28;45304;-82
2023/06/04 11:07:09;;;;;;;;;1.25;1.00;;;;;;;;5037235;28;45292;-84
2023/06/04 11:09:35;;;;;;;;;1.00;1.00;;;;;;;;5052077;28;46221;-87
2023/06/04 11:12:01;;;;;;;;;0.00;0.00;;;;;;;;5057278;28;45395;-91
2023/06/04 11:14:26;;;;;;;;;2.00;2.00;;;;;;;;5057017;28;45289;-87
2023/06/04 11:16:52;;;;;;;;;1.00;0.00;;;;;;;;5057462;28;45442;-83
2023/06/04 11:19:17;;;;;;;;;0.00;0.00;;;;;;;;5057026;28;47088;-84
2023/06/04 11:21:43;;;;;;;;;0.00;0.00;;;;;;;;5056722;28;45426;-83
2023/06/04 11:24:08;;;;;;;;;0.75;0.75;;;;;;;;5057160;28;45435;-84
2023/06/04 11:26:34;;;;;;;;;0.00;0.00;;;;;;;;5057444;28;45462;-84
2023/06/04 11:29:00;;;;;;;;;0.50;0.50;;;;;;;;5056592;28;46980;-84
2023/06/04 11:31:25;;;;;;;;;0.00;0.00;;;;;;;;5056922;28;45484;-84
2023/06/04 11:33:51;;;;;;;;;2.00;1.00;;;;;;;;5055632;28;45530;-92
2023/06/04 11:36:23;;;;;;;;;0.00;0.00;;;;;;;;5057880;28;45579;-91
2023/06/04 11:38:57;;;;;;;;;1.50;0.25;;;;;;;;5058232;28;46542;-92
2023/06/04 11:41:24;;;;;;;;;1.00;1.00;;;;;;;;5057386;28;45769;-89
2023/06/04 11:43:50;;;;;;;;;3.00;1.50;;;;;;;;5058314;28;45400;-86
2023/06/04 11:46:15;;;;;;;;;0.00;0.00;;;;;;;;5056747;28;45465;-85
2023/06/04 11:48:40;;;;;;;;;1.00;1.00;;;;;;;;5056568;28;45358;-87
2023/06/04 11:51:09;;;;;;;;;9.33;4.67;;;;;;;;5054966;28;45717;-86
2023/06/04 11:53:38;;;;;;;;;1.00;1.00;;;;;;;;5056724;28;45263;-87
2023/06/04 11:56:04;;;;;;;;;5.00;5.00;;;;;;;;5056562;28;45353;-87
2023/06/04 11:58:30;;;;;;;;;1.00;1.00;;;;;;;;5056484;28;46151;-87
2023/06/04 12:00:56;;;;;;;;;1.00;1.00;;;;;;;;5056587;28;45495;-85
2023/06/04 12:03:31;;;;;;;;;1.00;1.00;;;;;;;;5056661;28;45399;-86
2023/06/04 12:05:56;;;;;;;;;1.00;1.00;;;;;;;;5056156;28;45384;-86
2023/06/04 12:08:21;;;;;;;;;3.00;0.00;;;;;;;;5056532;28;46525;-87
2023/06/04 12:10:46;;;;;;;;;0.67;0.00;;;;;;;;5060199;28;45347;-96
2023/06/04 12:13:37;;;;;;;;;0.00;0.00;;;;;;;;5058745;28;44686;-96
2023/06/04 12:16:06;;;;;;;;;0.75;0.00;;;;;;;;5065988;28;45469;-96
2023/06/04 12:18:35;;;;;;;;;0.00;0.00;;;;;;;;5059791;28;45403;-95
2023/06/04 12:21:07;;;;;;;;;0.00;0.00;;;;;;;;5058907;28;45204;-95
2023/06/04 12:23:32;;;;;;;;;0.25;0.00;;;;;;;;5056629;28;45510;-96
2023/06/04 12:26:00;;;;;;;;;0.00;0.00;;;;;;;;5039326;28;45661;-95
2023/06/04 12:28:25;;;;;;;;;1.25;0.25;;;;;;;;5057985;28;45519;-96
2023/06/04 12:30:50;;;;;;;;;0.00;0.00;;;;;;;;5040803;28;46214;-96
2023/06/04 12:33:16;;;;;;;;;0.00;0.00;;;;;;;;5061413;28;44730;-96
2023/06/04 12:35:41;;;;;;;;;2.00;0.00;;;;;;;;5057234;28;45203;-96
2023/06/04 12:38:08;;;;;;;;;0.00;0.00;;;;;;;;5040349;28;47621;-95
2023/06/04 12:40:39;;;;;;;;;1.50;0.00;;;;;;;;5060165;28;45463;-96
2023/06/04 12:43:33;;;;;;;;;;;;;;;;;;;;;
2023/06/04 12:46:01;;;;;;;;;0.00;0.00;;;;;;;;5054016;28;70473;-96
2023/06/04 12:48:27;;;;;;;;;0.00;0.00;;;;;;;;5040007;28;48803;-96
2023/06/04 12:50:54;;;;;;;;;1.00;0.00;;;;;;;;5057785;28;45303;-96
2023/06/04 12:53:27;;;;;;;;;1.00;0.00;;;;;;;;5058903;28;45487;-96
2023/06/04 12:55:52;;;;;;;;;0.00;0.00;;;;;;;;5058002;28;45496;-96
2023/06/04 12:58:18;;;;;;;;;0.00;0.00;;;;;;;;5056037;28;46990;-96
2023/06/04 13:00:43;;;;;;;;;0.00;0.00;;;;;;;;5041891;28;45475;-96
2023/06/04 13:03:08;;;;;;;;;0.75;0.00;;;;;;;;5058810;28;44800;-96
2023/06/04 13:05:37;;;;;;;;;2.00;0.00;;;;;;;;5059861;28;45461;-96
2023/06/04 13:08:03;;;;;;;;;1.00;0.00;;;;;;;;5060220;28;45496;-96
2023/06/04 13:10:29;;;;;;;;;0.00;0.00;;;;;;;;5062600;28;45742;-96
2023/06/04 13:12:55;;;;;;;;;1.00;0.00;;;;;;;;5058920;28;45229;-96
2023/06/04 13:15:23;;;;;;;;;0.00;0.00;;;;;;;;5059934;28;45269;-96
2023/06/04 13:18:07;;;;;;;;;;;;;;;;;;;;;
2023/06/04 13:20:33;;;;;;;;;0.00;0.00;;;;;;;;5055325;28;72174;-96
2023/06/04 13:23:00;;;;;;;;;0.00;0.00;;;;;;;;5059045;28;45298;-95
2023/06/04 13:25:28;;;;;;;;;0.00;0.00;;;;;;;;5057284;28;45508;-95
2023/06/04 13:27:53;;;;;;;;;0.00;0.00;;;;;;;;5055682;28;47716;-93
2023/06/04 13:30:18;;;;;;;;;2.00;0.00;;;;;;;;5057278;28;45405;-94
2023/06/04 13:32:46;;;;;;;;;0.00;0.00;;;;;;;;5058163;28;44883;-93
2023/06/04 13:35:51;;;;;;;;;0.00;0.00;;;;;;;;5039654;28;45595;-95
2023/06/04 13:38:19;;;;;;;;;0.50;0.00;;;;;;;;5062365;28;45550;-95
2023/06/04 13:40:52;;;;;;;;;1.00;0.00;;;;;;;;5064322;28;45107;-96
2023/06/04 13:43:58;;;;;;;;;0.00;0.00;;;;;;;;5060954;28;45358;-95
2023/06/04 13:46:25;;;;;;;;;0.00;0.00;;;;;;;;5059932;28;45379;-93
2023/06/04 13:48:50;;;;;;;;;0.00;0.00;;;;;;;;5059611;28;45729;-93
2023/06/04 13:51:21;;;;;;;;;0.00;0.00;;;;;;;;5059967;28;45419;-95
2023/06/04 13:53:55;;;;;;;;;0.00;0.00;;;;;;;;5042017;28;45458;-94
2023/06/04 13:56:21;;;;;;;;;0.00;0.00;;;;;;;;5058017;28;45414;-93
2023/06/04 13:58:46;;;;;;;;;0.33;0.00;;;;;;;;5059290;28;46598;-95
2023/06/04 14:01:16;;;;;;;;;0.00;0.00;;;;;;;;5059370;28;45388;-94
2023/06/04 14:03:41;;;;;;;;;0.00;0.00;;;;;;;;5059872;28;45433;-92
2023/06/04 14:06:06;;;;;;;;;0.00;0.00;;;;;;;;5059260;28;45376;-93
2023/06/04 14:08:32;;;;;;;;;0.00;0.00;;;;;;;;5059001;28;46789;-95
2023/06/04 14:10:57;;;;;;;;;0.00;0.00;;;;;;;;5059962;28;45927;-95
2023/06/04 14:13:23;;;;;;;;;0.00;0.00;;;;;;;;5060709;28;45325;-95
2023/06/04 14:15:48;;;;;;;;;0.00;0.00;;;;;;;;5041810;28;45660;-90
2023/06/04 14:18:15;;;;;;;;;0.00;0.00;;;;;;;;5052095;28;45420;-91
2023/06/04 14:20:41;;;;;;;;;1.00;0.00;;;;;;;;5057343;28;45451;-91
2023/06/04 14:23:06;;;;;;;;;0.00;0.00;;;;;;;;5059208;28;45419;-94
2023/06/04 14:25:36;;;;;;;;;0.00;0.00;;;;;;;;5059219;28;45258;-92
2023/06/04 14:28:02;;;;;;;;;0.25;0.00;;;;;;;;5059571;28;47200;-93
2023/06/04 14:30:27;;;;;;;;;0.00;0.00;;;;;;;;5058094;28;45546;-92
2023/06/04 14:33:02;;;;;;;;;0.00;0.00;;;;;;;;5058967;28;45209;-94
2023/06/04 14:35:27;;;;;;;;;0.00;0.00;;;;;;;;5058817;28;45721;-93
2023/06/04 14:37:52;;;;;;;;;0.00;0.00;;;;;;;;5059146;28;45500;-93
2023/06/04 14:40:18;;;;;;;;;0.00;0.00;;;;;;;;5057789;28;45290;-92
2023/06/04 14:42:43;;;;;;;;;0.00;0.00;;;;;;;;5058515;28;45251;-93